createdAt,value
2018-05-04T00:00:03.420Z,0
2018-05-04T00:00:47.406Z,0
2018-05-04T00:06:36.701Z,0
2018-05-04T00:07:25.203Z,0
2018-05-04T00:08:14.168Z,0
2018-05-04T00:09:02.180Z,0
2018-05-04T00:09:50.938Z,0
2018-05-04T00:10:39.833Z,0
2018-05-04T00:11:28.150Z,0
2018-05-04T00:12:16.223Z,0
2018-05-04T00:13:04.752Z,0
2018-05-04T00:13:51.894Z,0
2018-05-04T00:14:40.076Z,0
2018-05-04T00:15:21.612Z,0
2018-05-04T00:16:02.025Z,0
2018-05-04T00:16:42.434Z,0
2018-05-04T00:17:22.881Z,0
2018-05-04T00:18:03.234Z,0
2018-05-04T00:18:43.710Z,0
2018-05-04T00:19:24.084Z,0
2018-05-04T00:20:04.503Z,0
2018-05-04T00:20:44.901Z,0
2018-05-04T00:21:25.362Z,0
2018-05-04T00:22:05.668Z,0
2018-05-04T00:22:46.092Z,0
2018-05-04T00:23:26.493Z,0
2018-05-04T00:24:06.871Z,0
2018-05-04T00:24:47.293Z,0
2018-05-04T00:25:27.675Z,0
2018-05-04T00:26:08.068Z,0
2018-05-04T00:26:48.461Z,0
2018-05-04T00:27:28.879Z,0
2018-05-04T00:28:09.248Z,0
2018-05-04T00:28:49.677Z,0
2018-05-04T00:29:30.153Z,0
2018-05-04T00:30:10.521Z,0
2018-05-04T00:30:50.981Z,0
2018-05-04T00:31:31.255Z,0
2018-05-04T00:32:11.695Z,0
2018-05-04T00:32:52.124Z,0
2018-05-04T00:33:32.502Z,0
2018-05-04T00:34:12.931Z,0
2018-05-04T00:34:53.325Z,0
2018-05-04T00:35:33.779Z,0
2018-05-04T00:36:14.157Z,0
2018-05-04T00:36:54.496Z,0
2018-05-04T00:37:34.974Z,0
2018-05-04T00:38:15.272Z,0
2018-05-04T00:38:55.693Z,0
2018-05-04T00:41:30.452Z,0
2018-05-04T00:42:19.236Z,0
2018-05-04T00:43:07.866Z,0
2018-05-04T00:43:56.251Z,0
2018-05-04T00:44:44.605Z,0
2018-05-04T00:45:33.405Z,0
2018-05-04T00:46:21.652Z,0
2018-05-04T00:49:07.558Z,0
2018-05-04T00:49:56.164Z,0
2018-05-04T00:50:44.458Z,0
2018-05-04T00:51:33.068Z,0
2018-05-04T00:52:22.082Z,0
2018-05-04T00:53:10.234Z,0
2018-05-04T00:53:58.899Z,0
2018-05-04T00:54:47.566Z,0
2018-05-04T00:55:36.152Z,0
2018-05-04T00:56:24.669Z,0
2018-05-04T00:57:13.198Z,0
2018-05-04T00:58:01.687Z,0
2018-05-04T00:58:50.249Z,0
2018-05-04T00:59:38.888Z,0
2018-05-04T01:00:28.031Z,0
2018-05-04T01:01:16.312Z,0
2018-05-04T01:02:05.345Z,0
2018-05-04T01:02:54.085Z,0
2018-05-04T01:03:42.381Z,0
2018-05-04T01:04:31.189Z,0
2018-05-04T01:05:19.804Z,0
2018-05-04T01:06:08.889Z,0
2018-05-04T01:06:57.620Z,0
2018-05-04T01:07:45.873Z,0
2018-05-04T01:08:35.268Z,0
2018-05-04T01:09:23.117Z,0
2018-05-04T01:10:11.635Z,0
2018-05-04T01:11:00.262Z,0
2018-05-04T01:11:48.903Z,0
2018-05-04T01:12:37.330Z,0
2018-05-04T01:13:26.141Z,0
2018-05-04T01:14:15.022Z,0
2018-05-04T01:15:03.365Z,0
2018-05-04T01:15:51.790Z,0
2018-05-04T01:16:40.262Z,0
2018-05-04T01:17:28.637Z,0
2018-05-04T01:18:17.190Z,0
2018-05-04T01:19:05.373Z,0
2018-05-04T01:19:53.892Z,0
2018-05-04T01:20:42.561Z,0
2018-05-04T01:21:31.101Z,0
2018-05-04T01:22:19.585Z,0
2018-05-04T01:23:08.342Z,0
2018-05-04T01:23:56.692Z,0
2018-05-04T01:24:45.270Z,0
2018-05-04T01:25:33.777Z,0
2018-05-04T01:26:22.411Z,0
2018-05-04T01:27:11.209Z,0
2018-05-04T01:27:58.172Z,0
2018-05-04T01:28:47.133Z,0
2018-05-04T01:29:35.608Z,0
2018-05-04T01:30:24.057Z,0
2018-05-04T01:31:12.614Z,0
2018-05-04T01:32:01.289Z,0
2018-05-04T01:32:49.766Z,0
2018-05-04T01:33:38.165Z,0
2018-05-04T01:34:27.173Z,0
2018-05-04T01:35:15.684Z,0
2018-05-04T01:36:04.054Z,0
2018-05-04T01:36:52.787Z,0
2018-05-04T01:37:41.508Z,0
2018-05-04T01:38:30.411Z,0
2018-05-04T01:39:18.983Z,0
2018-05-04T01:40:07.422Z,0
2018-05-04T01:40:55.900Z,0
2018-05-04T01:41:44.531Z,0
2018-05-04T01:42:33.339Z,0
2018-05-04T01:43:22.013Z,0
2018-05-04T01:44:10.205Z,0
2018-05-04T01:44:58.782Z,0
2018-05-04T01:45:47.317Z,0
2018-05-04T01:46:35.894Z,0
2018-05-04T01:47:24.835Z,0
2018-05-04T01:48:13.683Z,0
2018-05-04T01:49:02.099Z,0
2018-05-04T01:49:50.231Z,0
2018-05-04T01:50:38.867Z,0
2018-05-04T01:51:27.602Z,0
2018-05-04T01:52:16.137Z,0
2018-05-04T01:53:05.077Z,0
2018-05-04T01:53:53.204Z,0
2018-05-04T01:54:41.907Z,0
2018-05-04T01:55:30.629Z,0
2018-05-04T01:56:18.872Z,0
2018-05-04T01:57:07.611Z,0
2018-05-04T01:57:56.136Z,0
2018-05-04T01:58:45.037Z,0
2018-05-04T01:59:33.219Z,0
2018-05-04T02:00:22.113Z,0
2018-05-04T02:01:10.140Z,0
2018-05-04T02:01:58.772Z,0
2018-05-04T02:02:47.639Z,0
2018-05-04T02:03:36.529Z,0
2018-05-04T02:04:25.099Z,0
2018-05-04T02:07:03.978Z,0
2018-05-04T02:07:52.585Z,0
2018-05-04T02:08:41.354Z,0
2018-05-04T02:09:29.634Z,0
2018-05-04T02:10:18.155Z,0
2018-05-04T02:11:06.665Z,0
2018-05-04T02:11:55.188Z,0
2018-05-04T02:12:44.000Z,0
2018-05-04T02:13:32.440Z,0
2018-05-04T02:14:21.015Z,0
2018-05-04T02:15:09.769Z,0
2018-05-04T02:15:58.124Z,0
2018-05-04T02:16:46.676Z,0
2018-05-04T02:17:35.130Z,0
2018-05-04T02:18:23.444Z,0
2018-05-04T02:19:12.380Z,0
2018-05-04T02:20:00.952Z,0
2018-05-04T02:20:49.583Z,0
2018-05-04T02:21:38.023Z,0
2018-05-04T02:22:26.765Z,0
2018-05-04T02:23:15.257Z,0
2018-05-04T02:24:03.521Z,0
2018-05-04T02:24:52.035Z,0
2018-05-04T02:25:41.043Z,0
2018-05-04T02:26:29.211Z,0
2018-05-04T02:27:17.583Z,0
2018-05-04T02:28:06.153Z,0
2018-05-04T02:28:54.723Z,0
2018-05-04T02:29:43.632Z,0
2018-05-04T02:30:31.912Z,0
2018-05-04T02:31:20.557Z,0
2018-05-04T02:32:09.205Z,0
2018-05-04T02:32:57.698Z,0
2018-05-04T02:33:46.195Z,0
2018-05-04T02:34:34.735Z,0
2018-05-04T02:35:23.412Z,0
2018-05-04T02:36:12.071Z,0
2018-05-04T02:37:00.963Z,0
2018-05-04T02:37:48.949Z,0
2018-05-04T02:38:37.507Z,0
2018-05-04T02:39:26.536Z,0
2018-05-04T02:40:14.590Z,0
2018-05-04T02:41:03.081Z,0
2018-05-04T02:41:51.605Z,0
2018-05-04T02:42:40.639Z,0
2018-05-04T02:43:28.950Z,0
2018-05-04T02:44:17.758Z,0
2018-05-04T02:45:06.334Z,0
2018-05-04T02:45:54.910Z,0
2018-05-04T02:46:43.129Z,0
2018-05-04T02:47:31.701Z,0
2018-05-04T02:48:20.114Z,0
2018-05-04T02:49:08.580Z,0
2018-05-04T02:49:57.515Z,0
2018-05-04T02:50:44.595Z,0
2018-05-04T02:51:33.469Z,0
2018-05-04T02:52:21.777Z,0
2018-05-04T02:53:10.536Z,0
2018-05-04T02:53:58.488Z,0
2018-05-04T02:54:47.225Z,0
2018-05-04T02:55:35.852Z,0
2018-05-04T02:56:17.191Z,0
2018-05-04T02:56:57.612Z,0
2018-05-04T02:57:38.087Z,0
2018-05-04T02:58:18.443Z,0
2018-05-04T02:58:58.839Z,0
2018-05-04T02:59:39.253Z,0
2018-05-04T03:00:19.611Z,0
2018-05-04T03:01:00.049Z,0
2018-05-04T03:01:40.429Z,0
2018-05-04T03:02:20.870Z,0
2018-05-04T03:03:01.222Z,0
2018-05-04T03:03:41.640Z,0
2018-05-04T03:04:22.074Z,0
2018-05-04T03:05:02.551Z,0
2018-05-04T03:05:42.913Z,0
2018-05-04T03:06:23.308Z,0
2018-05-04T03:07:03.695Z,0
2018-05-04T03:07:44.094Z,0
2018-05-04T03:08:24.521Z,0
2018-05-04T03:09:04.905Z,0
2018-05-04T03:09:45.302Z,0
2018-05-04T03:10:25.703Z,0
2018-05-04T03:11:06.185Z,0
2018-05-04T03:11:46.571Z,0
2018-05-04T03:12:26.998Z,0
2018-05-04T03:13:07.411Z,0
2018-05-04T03:13:47.827Z,0
2018-05-04T03:14:28.213Z,0
2018-05-04T03:15:08.653Z,0
2018-05-04T03:15:49.033Z,0
2018-05-04T03:16:29.494Z,0
2018-05-04T03:17:09.917Z,0
2018-05-04T03:17:50.272Z,0
2018-05-04T03:18:30.678Z,0
2018-05-04T03:19:11.087Z,0
2018-05-04T03:19:51.466Z,0
2018-05-04T03:20:31.912Z,0
2018-05-04T03:21:12.274Z,0
2018-05-04T03:21:52.641Z,0
2018-05-04T03:22:33.120Z,0
2018-05-04T03:23:13.534Z,0
2018-05-04T03:23:53.971Z,0
2018-05-04T03:24:34.430Z,0
2018-05-04T03:25:14.818Z,0
2018-05-04T03:25:55.191Z,0
2018-05-04T03:26:36.410Z,0
2018-05-04T03:27:17.299Z,0
2018-05-04T03:28:00.743Z,0
2018-05-04T03:28:42.303Z,4
2018-05-04T03:29:23.869Z,4
2018-05-04T03:30:04.455Z,0
2018-05-04T03:30:45.136Z,0
2018-05-04T03:31:26.381Z,0
2018-05-04T03:32:07.886Z,4
2018-05-04T03:32:48.652Z,4
2018-05-04T03:33:29.671Z,0
2018-05-04T03:34:11.443Z,4
2018-05-04T03:34:53.935Z,4
2018-05-04T03:35:35.405Z,0
2018-05-04T03:36:17.094Z,4
2018-05-04T03:36:57.603Z,4
2018-05-04T03:37:39.018Z,4
2018-05-04T03:38:21.728Z,8
2018-05-04T03:39:01.995Z,4
2018-05-04T03:39:43.102Z,8
2018-05-04T03:40:24.843Z,8
2018-05-04T03:41:05.744Z,8
2018-05-04T03:41:47.315Z,12
2018-05-04T03:42:28.177Z,12
2018-05-04T03:43:09.128Z,12
2018-05-04T03:43:50.756Z,12
2018-05-04T03:44:32.198Z,12
2018-05-04T03:45:14.732Z,16
2018-05-04T03:45:55.772Z,16
2018-05-04T03:46:36.433Z,16
2018-05-04T03:47:17.374Z,16
2018-05-04T03:47:58.245Z,20
2018-05-04T03:48:38.718Z,20
2018-05-04T03:49:19.680Z,24
2018-05-04T03:50:01.791Z,24
2018-05-04T03:50:41.958Z,28
2018-05-04T03:51:22.717Z,28
2018-05-04T03:52:03.401Z,32
2018-05-04T03:52:44.053Z,32
2018-05-04T03:53:24.435Z,36
2018-05-04T03:54:04.847Z,40
2018-05-04T03:54:45.349Z,44
2018-05-04T03:55:26.099Z,48
2018-05-04T03:56:07.695Z,48
2018-05-04T03:56:48.230Z,52
2018-05-04T03:57:28.997Z,60
2018-05-04T03:58:09.769Z,60
2018-05-04T03:58:50.269Z,68
2018-05-04T03:59:30.833Z,72
2018-05-04T04:00:11.215Z,76
2018-05-04T04:00:51.623Z,84
2018-05-04T04:01:32.271Z,88
2018-05-04T04:02:12.834Z,96
2018-05-04T04:02:53.700Z,100
2018-05-04T04:41:26.670Z,2148
2018-05-04T04:42:07.032Z,2272
2018-05-04T04:42:47.392Z,2432
2018-05-04T04:43:27.831Z,2572
2018-05-04T04:44:08.268Z,2804
2018-05-04T04:44:48.631Z,2952
2018-05-04T04:45:29.031Z,3048
2018-05-04T04:46:09.428Z,3204
2018-05-04T04:46:49.826Z,3436
2018-05-04T04:47:30.221Z,3608
2018-05-04T04:48:10.642Z,3884
2018-05-04T04:48:50.997Z,4020
2018-05-04T04:49:31.412Z,4444
2018-05-04T04:50:11.856Z,4584
2018-05-04T04:54:12.643Z,5608
2018-05-04T04:54:52.996Z,6072
2018-05-04T04:55:33.468Z,6636
2018-05-04T04:56:13.813Z,6620
2018-05-04T04:56:54.233Z,7176
2018-05-04T05:02:45.605Z,8584
2018-05-04T05:03:26.331Z,8496
2018-05-04T05:04:06.651Z,8376
2018-05-04T05:07:22.864Z,9760
2018-05-04T05:08:03.324Z,9640
2018-05-04T05:08:43.690Z,9472
2018-05-04T05:09:24.151Z,10784
2018-05-04T05:10:04.536Z,11104
2018-05-04T05:10:45.097Z,10848
2018-05-04T05:11:25.505Z,10656
2018-05-04T05:12:05.917Z,11008
2018-05-04T05:12:46.328Z,11424
2018-05-04T05:13:26.735Z,11616
2018-05-04T05:14:07.086Z,12416
2018-05-04T05:14:47.479Z,12288
2018-05-04T05:15:27.940Z,12544
2018-05-04T05:16:08.319Z,12480
2018-05-04T05:23:18.667Z,16576
2018-05-04T05:23:59.128Z,17120
2018-05-04T05:24:39.487Z,18528
2018-05-04T05:25:34.892Z,18048
2018-05-04T05:26:30.307Z,18848
2018-05-04T05:27:10.706Z,18624
2018-05-04T05:27:51.090Z,17728
2018-05-04T05:28:31.524Z,16672
2018-05-04T05:29:11.944Z,17536
2018-05-04T05:29:52.355Z,18528
2018-05-04T05:30:32.795Z,19648
2018-05-04T05:31:13.199Z,20192
2018-05-04T05:31:53.623Z,20448
2018-05-04T05:32:33.998Z,20416
2018-05-04T05:33:14.536Z,20000
2018-05-04T05:33:54.907Z,20448
2018-05-04T05:34:35.354Z,20128
2018-05-04T05:35:15.794Z,20704
2018-05-04T05:35:56.208Z,19456
2018-05-04T05:38:09.135Z,21824
2018-05-04T05:46:25.885Z,23680
2018-05-04T05:47:06.326Z,24608
2018-05-04T05:47:47.037Z,25568
2018-05-04T05:48:27.532Z,25312
2018-05-04T05:49:08.120Z,25248
2018-05-04T05:49:48.535Z,25792
2018-05-04T05:50:29.589Z,26752
2018-05-04T05:51:10.186Z,26944
2018-05-04T05:51:50.646Z,27392
2018-05-04T05:52:31.073Z,28288
2018-05-04T05:53:11.554Z,28416
2018-05-04T05:53:51.917Z,28416
2018-05-04T05:54:32.482Z,28192
2018-05-04T05:55:13.179Z,28992
2018-05-04T05:55:53.559Z,29504
2018-05-04T05:56:33.927Z,30304
2018-05-04T05:57:14.353Z,28960
2018-05-04T05:57:54.919Z,28064
2018-05-04T05:58:35.296Z,27072
2018-05-04T05:59:15.728Z,27456
2018-05-04T05:59:56.412Z,27936
2018-05-04T06:00:37.102Z,28000
2018-05-04T06:01:17.450Z,28896
2018-05-04T06:01:57.942Z,29600
2018-05-04T06:02:38.368Z,30208
2018-05-04T06:03:18.913Z,31488
2018-05-04T06:03:59.408Z,31104
2018-05-04T06:04:39.779Z,31040
2018-05-04T06:05:20.489Z,31808
2018-05-04T06:06:01.063Z,32640
2018-05-04T06:06:41.480Z,32064
2018-05-04T06:07:22.142Z,33280
2018-05-04T06:08:02.553Z,33408
2018-05-04T06:08:42.961Z,34912
2018-05-04T06:09:24.669Z,34816
2018-05-04T06:10:04.203Z,34112
2018-05-04T06:10:44.612Z,33664
2018-05-04T06:11:24.971Z,34432
2018-05-04T06:12:05.386Z,34240
2018-05-04T06:12:45.804Z,34656
2018-05-04T06:13:26.220Z,34112
2018-05-04T06:14:06.637Z,35008
2018-05-04T06:14:47.069Z,34336
2018-05-04T06:15:27.471Z,34880
2018-05-04T06:16:07.938Z,35232
2018-05-04T06:16:48.338Z,36000
2018-05-04T06:17:29.562Z,36384
2018-05-04T06:18:09.384Z,34336
2018-05-04T06:18:50.116Z,33728
2018-05-04T06:19:30.487Z,33184
2018-05-04T06:20:10.947Z,34784
2018-05-04T06:20:52.134Z,35872
2018-05-04T06:21:32.036Z,38112
2018-05-04T06:22:12.598Z,38528
2018-05-04T06:22:53.033Z,38528
2018-05-04T06:23:33.594Z,38752
2018-05-04T06:24:15.060Z,39904
2018-05-04T06:24:54.926Z,39712
2018-05-04T06:25:36.059Z,41216
2018-05-04T06:26:15.837Z,43328
2018-05-04T06:26:56.296Z,41536
2018-05-04T06:27:36.742Z,40768
2018-05-04T06:28:17.177Z,40544
2018-05-04T06:28:57.691Z,41952
2018-05-04T06:29:39.047Z,41504
2018-05-04T06:30:18.673Z,41568
2018-05-04T06:40:56.048Z,32800
2018-05-04T06:41:36.443Z,30880
2018-05-04T06:42:16.954Z,30336
2018-05-04T06:42:57.428Z,30976
2018-05-04T06:53:19.845Z,32672
2018-05-04T07:02:14.576Z,40224
2018-05-04T07:02:55.035Z,37312
2018-05-04T07:03:35.466Z,36832
2018-05-04T07:04:15.911Z,36448
2018-05-04T07:04:57.820Z,37664
2018-05-04T07:05:39.250Z,38464
2018-05-04T07:06:20.795Z,39456
2018-05-04T07:07:01.352Z,39360
2018-05-04T07:07:41.921Z,37568
2018-05-04T07:08:22.511Z,39136
2018-05-04T07:23:30.147Z,16800
2018-05-04T07:24:41.496Z,9592
2018-05-04T07:34:27.798Z,4916
2018-05-04T07:56:15.458Z,3456
2018-05-04T07:56:57.084Z,3436
2018-05-04T08:58:45.594Z,2504
2018-05-04T09:50:41.507Z,2024
2018-05-04T09:51:24.211Z,2020
2018-05-04T10:54:19.854Z,1712
2018-05-04T10:56:20.563Z,1704
2018-05-04T10:57:01.190Z,1696
2018-05-04T10:57:42.776Z,1692
2018-05-04T10:58:23.298Z,1688
2018-05-04T10:59:04.346Z,1692
2018-05-04T10:59:45.885Z,1696
2018-05-04T11:00:27.349Z,1692
2018-05-04T11:01:08.636Z,1692
2018-05-04T11:01:49.110Z,1688
2018-05-04T11:02:29.492Z,1684
2018-05-04T11:03:09.966Z,1684
2018-05-04T11:03:50.388Z,1680
2018-05-04T11:04:30.830Z,1680
2018-05-04T11:05:11.457Z,1676
2018-05-04T11:05:53.164Z,1668
2018-05-04T11:06:33.590Z,1664
2018-05-04T11:07:14.197Z,1664
2018-05-04T11:07:54.420Z,1664
2018-05-04T11:08:35.963Z,1660
2018-05-04T11:09:16.690Z,1656
2018-05-04T11:09:57.531Z,1652
2018-05-04T11:10:38.050Z,1648
2018-05-04T11:11:19.970Z,1644
2018-05-04T11:12:00.386Z,1644
2018-05-04T11:12:42.309Z,1640
2018-05-04T11:13:27.439Z,1636
2018-05-04T11:14:07.400Z,1636
2018-05-04T11:14:48.695Z,1632
2018-05-04T11:15:29.659Z,1632
2018-05-04T11:16:10.087Z,1632
2018-05-04T11:16:50.526Z,1628
2018-05-04T11:17:31.059Z,1628
2018-05-04T11:18:11.429Z,1628
2018-05-04T11:18:51.861Z,1628
2018-05-04T11:19:32.329Z,1624
2018-05-04T11:20:13.641Z,1620
2018-05-04T11:20:54.597Z,1616
2018-05-04T11:21:35.773Z,1620
2018-05-04T11:22:16.993Z,1620
2018-05-04T11:22:57.350Z,1616
2018-05-04T11:23:39.526Z,1612
2018-05-04T11:24:19.825Z,1608
2018-05-04T11:25:00.187Z,1608
2018-05-04T11:25:40.956Z,1608
2018-05-04T11:27:47.749Z,1596
2018-05-04T11:28:30.656Z,1596
2018-05-04T11:29:12.315Z,1596
2018-05-04T11:29:54.220Z,1592
2018-05-04T11:30:34.815Z,1592
2018-05-04T11:31:16.026Z,1584
2018-05-04T11:31:56.515Z,1584
2018-05-04T11:32:37.069Z,1576
2018-05-04T11:33:18.837Z,1584
2018-05-04T11:33:58.073Z,1576
2018-05-04T11:34:38.618Z,1576
2018-05-04T11:35:19.150Z,1564
2018-05-04T11:36:00.032Z,1572
2018-05-04T11:36:42.002Z,1568
2018-05-04T11:37:23.237Z,1568
2018-05-04T11:38:03.816Z,1568
2018-05-04T11:38:44.246Z,1564
2018-05-04T11:39:25.191Z,1564
2018-05-04T11:55:23.241Z,1532
2018-05-04T11:56:03.701Z,1532
2018-05-04T11:56:44.085Z,1524
2018-05-04T11:57:24.654Z,1520
2018-05-04T11:58:05.142Z,1520
2018-05-04T11:58:45.493Z,1524
2018-05-04T11:59:25.986Z,1524
2018-05-04T12:00:09.170Z,1528
2018-05-04T12:00:49.878Z,1520
2018-05-04T12:01:30.075Z,1520
2018-05-04T12:02:10.580Z,1520
2018-05-04T12:02:51.877Z,1516
2018-05-04T12:03:42.279Z,1512
2018-05-04T12:04:26.465Z,1508
2018-05-04T12:05:07.100Z,1508
2018-05-04T12:05:47.574Z,1508
2018-05-04T12:06:28.090Z,1504
2018-05-04T12:07:08.565Z,1504
2018-05-04T12:07:51.180Z,1504
2018-05-04T12:08:31.643Z,1504
2018-05-04T12:09:12.287Z,1508
2018-05-04T12:09:54.270Z,1500
2018-05-04T12:10:34.741Z,1500
2018-05-04T12:11:17.582Z,1492
2018-05-04T12:11:58.842Z,1488
2018-05-04T12:12:42.734Z,1492
2018-05-04T13:00:12.165Z,1412
2018-05-04T13:00:52.469Z,1412
2018-05-04T13:01:32.874Z,1412
2018-05-04T13:02:13.380Z,1412
2018-05-04T13:02:53.818Z,1412
2018-05-04T13:03:34.543Z,1408
2018-05-04T13:04:14.686Z,1404
2018-05-04T13:04:55.107Z,1412
2018-05-04T13:05:35.726Z,1408
2018-05-04T13:06:15.984Z,1404
2018-05-04T13:06:56.381Z,1404
2018-05-04T13:07:36.926Z,1400
2018-05-04T13:08:17.555Z,1396
2018-05-04T13:08:58.264Z,1396
2018-05-04T13:09:38.753Z,1400
2018-05-04T13:10:20.730Z,1400
2018-05-04T13:11:01.301Z,1404
2018-05-04T13:11:41.935Z,1396
2018-05-04T13:12:22.987Z,1400
2018-05-04T13:13:03.440Z,1396
2018-05-04T13:13:44.810Z,1388
2018-05-04T13:14:25.084Z,1384
2018-05-04T13:15:05.543Z,1388
2018-05-04T13:15:46.088Z,1388
2018-05-04T13:16:27.158Z,1392
2018-05-04T13:17:07.457Z,1388
2018-05-04T13:17:47.870Z,1388
2018-05-04T13:18:28.362Z,1384
2018-05-04T13:19:08.819Z,1388
2018-05-04T13:19:49.499Z,1388
2018-05-04T13:20:29.680Z,1388
2018-05-04T13:21:10.628Z,1384
2018-05-04T13:21:51.150Z,1380
2018-05-04T13:22:31.618Z,1376
2018-05-04T13:23:12.125Z,1376
2018-05-04T13:23:52.557Z,1372
2018-05-04T13:24:32.987Z,1372
2018-05-04T13:25:14.159Z,1376
2018-05-04T13:25:54.894Z,1380
2018-05-04T13:26:35.330Z,1376
2018-05-04T13:27:15.792Z,1376
2018-05-04T13:27:57.451Z,1376
2018-05-04T13:28:38.293Z,1376
2018-05-04T13:29:18.826Z,1376
2018-05-04T13:30:00.344Z,1380
2018-05-04T13:30:41.072Z,1372
2018-05-04T13:31:21.534Z,1368
2018-05-04T13:32:01.877Z,1364
2018-05-04T13:32:42.470Z,1368
2018-05-04T13:33:22.928Z,1364
2018-05-04T13:34:03.273Z,1364
2018-05-04T13:34:43.799Z,1364
2018-05-04T13:35:24.234Z,1360
2018-05-04T13:36:04.963Z,1360
2018-05-04T13:36:45.489Z,1364
2018-05-04T13:37:26.219Z,1364
2018-05-04T13:38:06.651Z,1360
2018-05-04T13:38:47.374Z,1356
2018-05-04T13:39:27.774Z,1348
2018-05-04T13:40:08.239Z,1352
2018-05-04T13:40:48.686Z,1356
2018-05-04T13:41:29.055Z,1356
2018-05-04T13:42:09.489Z,1356
2018-05-04T13:42:50.157Z,1356
2018-05-04T13:43:30.574Z,1352
2018-05-04T13:44:10.981Z,1348
2018-05-04T13:44:51.649Z,1348
2018-05-04T13:45:32.098Z,1348
2018-05-04T13:46:13.454Z,1348
2018-05-04T13:46:53.782Z,1344
2018-05-04T13:47:34.304Z,1348
2018-05-04T13:48:15.179Z,1344
2018-05-04T13:48:55.722Z,1348
2018-05-04T13:49:36.046Z,1344
2018-05-04T13:50:16.838Z,1340
2018-05-04T13:50:57.429Z,1340
2018-05-04T13:51:37.745Z,1340
2018-05-04T13:52:18.440Z,1336
2018-05-04T13:52:58.998Z,1336
2018-05-04T13:53:39.849Z,1336
2018-05-04T13:54:20.367Z,1336
2018-05-04T13:55:01.215Z,1332
2018-05-04T13:55:41.751Z,1332
2018-05-04T13:56:22.429Z,1332
2018-05-04T13:57:03.299Z,1332
2018-05-04T13:57:43.813Z,1332
2018-05-04T13:58:24.288Z,1332
2018-05-04T13:59:04.676Z,1328
2018-05-04T13:59:45.076Z,1328
2018-05-04T14:00:25.751Z,1320
2018-05-04T14:01:06.962Z,1324
2018-05-04T14:01:47.439Z,1328
2018-05-04T14:02:27.908Z,1328
2018-05-04T14:03:08.442Z,1328
2018-05-04T14:03:48.935Z,1324
2018-05-04T14:04:30.969Z,1320
2018-05-04T14:05:11.737Z,1324
2018-05-04T14:05:52.515Z,1320
2018-05-04T14:06:33.181Z,1320
2018-05-04T14:07:13.423Z,1316
2018-05-04T14:07:54.387Z,1316
2018-05-04T14:08:35.129Z,1316
2018-05-04T14:09:16.091Z,1312
2018-05-04T14:09:57.748Z,1304
2018-05-04T14:10:38.211Z,1300
2018-05-04T14:11:18.785Z,1296
2018-05-04T14:11:59.744Z,1296
2018-05-04T14:12:40.447Z,1296
2018-05-04T14:13:20.931Z,1296
2018-05-04T14:14:01.552Z,1296
2018-05-04T14:14:41.944Z,1296
2018-05-04T14:15:22.705Z,1296
2018-05-04T14:16:03.161Z,1296
2018-05-04T14:16:44.540Z,1296
2018-05-04T14:17:24.965Z,1292
2018-05-04T14:18:05.294Z,1288
2018-05-04T14:18:46.203Z,1292
2018-05-04T14:19:26.764Z,1284
2018-05-04T14:20:07.573Z,1288
2018-05-04T14:20:48.130Z,1284
2018-05-04T14:36:10.862Z,1252
2018-05-04T14:36:50.799Z,1248
2018-05-04T14:37:32.225Z,1248
2018-05-04T14:38:12.524Z,1244
2018-05-04T14:38:53.102Z,1244
2018-05-04T14:39:33.575Z,1244
2018-05-04T14:40:14.229Z,1244
2018-05-04T14:40:54.906Z,1240
2018-05-04T14:41:35.604Z,1240
2018-05-04T14:42:16.547Z,1232
2018-05-04T14:42:56.966Z,1232
2018-05-04T14:43:37.893Z,1232
2018-05-04T14:44:18.774Z,1232
2018-05-04T14:44:59.501Z,1228
2018-05-04T14:45:40.007Z,1228
2018-05-04T14:46:20.837Z,1224
2018-05-04T14:47:01.904Z,1220
2018-05-04T14:47:42.336Z,1220
2018-05-04T14:48:22.843Z,1220
2018-05-04T14:49:05.281Z,1220
2018-05-04T14:49:46.082Z,1220
2018-05-04T14:50:28.062Z,1220
2018-05-04T14:51:07.969Z,1220
2018-05-04T14:51:48.381Z,1216
2018-05-04T14:52:28.859Z,1216
2018-05-04T14:53:09.415Z,1212
2018-05-04T14:53:49.872Z,1212
2018-05-04T14:54:30.560Z,1208
2018-05-04T14:55:10.972Z,1212
2018-05-04T14:55:51.533Z,1208
2018-05-04T14:56:32.018Z,1208
2018-05-04T14:57:12.402Z,1204
2018-05-04T14:57:52.875Z,1208
2018-05-04T14:58:33.397Z,1204
2018-05-04T14:59:13.807Z,1204
2018-05-04T15:04:45.052Z,1188
2018-05-04T15:05:25.392Z,1184
2018-05-04T15:06:05.849Z,1184
2018-05-04T15:06:46.409Z,1180
2018-05-04T15:07:27.152Z,1180
2018-05-04T15:08:07.895Z,1176
2018-05-04T15:08:49.065Z,1172
2018-05-04T15:09:32.310Z,1168
2018-05-04T15:10:12.753Z,1168
2018-05-04T15:10:53.532Z,1168
2018-05-04T15:11:34.863Z,1164
2018-05-04T15:12:15.545Z,1164
2018-05-04T15:12:55.977Z,1164
2018-05-04T15:13:36.491Z,1164
2018-05-04T15:14:17.531Z,1160
2018-05-04T15:14:57.528Z,1160
2018-05-04T15:15:38.177Z,1160
2018-05-04T15:16:18.696Z,1160
2018-05-04T15:28:26.184Z,1120
2018-05-04T15:29:06.973Z,1120
2018-05-04T15:29:47.409Z,1116
2018-05-04T15:30:27.826Z,1112
2018-05-04T15:31:08.230Z,1112
2018-05-04T15:31:49.049Z,1112
2018-05-04T15:32:30.382Z,1112
2018-05-04T15:33:10.772Z,1112
2018-05-04T15:33:51.542Z,1104
2018-05-04T15:34:32.095Z,1104
2018-05-04T15:35:13.342Z,1100
2018-05-04T15:35:53.771Z,1100
2018-05-04T15:36:34.550Z,1096
2018-05-04T15:37:14.889Z,1096
2018-05-04T15:37:55.474Z,1096
2018-05-04T15:38:36.034Z,1096
2018-05-04T15:39:16.770Z,1088
2018-05-04T15:39:57.506Z,1088
2018-05-04T15:40:37.965Z,1088
2018-05-04T15:41:18.478Z,1088
2018-05-04T15:41:58.979Z,1084
2018-05-04T15:42:39.559Z,1084
2018-05-04T15:43:20.371Z,1080
2018-05-04T15:44:01.179Z,1076
2018-05-04T15:44:41.932Z,1076
2018-05-04T15:45:25.591Z,1076
2018-05-04T15:46:06.258Z,1076
2018-05-04T15:46:46.960Z,1072
2018-05-04T15:47:27.113Z,1072
2018-05-04T15:48:07.492Z,1072
2018-05-04T15:48:48.127Z,1072
2018-05-04T15:49:28.632Z,1064
2018-05-04T15:50:09.148Z,1068
2018-05-04T15:50:49.721Z,1064
2018-05-04T15:51:30.122Z,1060
2018-05-04T15:52:10.633Z,1060
2018-05-04T15:52:51.027Z,1056
2018-05-04T15:53:31.743Z,1056
2018-05-04T15:54:12.188Z,1056
2018-05-04T15:54:53.009Z,1052
2018-05-04T15:55:33.535Z,1052
2018-05-04T15:56:14.078Z,1048
2018-05-04T15:56:55.319Z,1044
2018-05-04T15:57:35.348Z,1044
2018-05-04T15:58:15.928Z,1044
2018-05-04T15:58:58.056Z,1040
2018-05-04T15:59:38.675Z,1040
2018-05-04T16:00:19.141Z,1036
2018-05-04T16:00:59.547Z,1036
2018-05-04T16:01:42.398Z,1036
2018-05-04T16:02:22.575Z,1032
2018-05-04T16:03:03.087Z,1028
2018-05-04T16:03:43.679Z,1028
2018-05-04T16:04:24.166Z,1024
2018-05-04T16:05:04.622Z,1024
2018-05-04T16:44:45.623Z,900
2018-05-04T16:45:26.285Z,892
2018-05-04T16:46:08.168Z,892
2018-05-04T16:48:26.481Z,884
2018-05-04T16:49:07.441Z,880
2018-05-04T16:49:48.253Z,876
2018-05-04T16:50:28.679Z,872
2018-05-04T16:51:09.097Z,872
2018-05-04T16:51:50.019Z,868
2018-05-04T16:52:30.744Z,868
2018-05-04T16:53:11.243Z,860
2018-05-04T16:53:51.761Z,860
2018-05-04T16:54:32.248Z,856
2018-05-04T16:55:12.709Z,852
2018-05-04T16:55:53.394Z,852
2018-05-04T16:56:33.824Z,848
2018-05-04T16:57:14.431Z,844
2018-05-04T16:57:55.036Z,844
2018-05-04T16:58:35.521Z,844
2018-05-04T16:59:15.994Z,840
2018-05-04T16:59:57.102Z,836
2018-05-04T17:00:37.537Z,836
2018-05-04T17:01:18.078Z,832
2018-05-04T17:03:40.506Z,820
2018-05-04T17:04:20.995Z,820
2018-05-04T17:05:01.446Z,816
2018-05-04T17:05:42.463Z,812
2018-05-04T17:09:56.331Z,796
2018-05-04T17:10:36.775Z,792
2018-05-04T17:11:17.461Z,788
2018-05-04T17:13:49.822Z,776
2018-05-04T17:14:30.143Z,776
2018-05-04T17:15:10.631Z,768
2018-05-04T17:15:51.395Z,768
2018-05-04T17:16:32.032Z,764
2018-05-04T17:17:12.581Z,760
2018-05-04T17:17:53.568Z,760
2018-05-04T17:18:34.999Z,756
2018-05-04T17:52:24.504Z,564
2018-05-04T17:53:05.973Z,560
2018-05-04T17:53:46.524Z,556
2018-05-04T17:54:26.969Z,552
2018-05-04T17:55:07.684Z,548
2018-05-04T17:55:48.711Z,540
2018-05-04T17:58:20.717Z,524
2018-05-04T17:59:00.253Z,520
2018-05-04T17:59:41.956Z,512
2018-05-04T18:00:22.327Z,508
2018-05-04T18:01:02.965Z,504
2018-05-04T18:01:43.554Z,500
2018-05-04T18:02:24.417Z,496
2018-05-04T18:03:05.016Z,492
2018-05-04T18:03:46.481Z,484
2018-05-04T18:04:30.672Z,480
2018-05-04T18:05:14.395Z,472